createdAt,value
2022-09-06T00:01:16.474Z,9.00
2022-09-06T00:03:46.241Z,4.80
2022-09-06T00:06:18.062Z,8.20
2022-09-06T00:08:48.293Z,7.20
2022-09-06T00:11:18.823Z,7.80
2022-09-06T00:13:48.438Z,8.60
2022-09-06T00:16:21.174Z,6.80
2022-09-06T00:18:53.140Z,5.30
2022-09-06T00:21:30.060Z,7.00
2022-09-06T00:23:58.811Z,8.90
2022-09-06T00:26:27.806Z,4.70
2022-09-06T00:28:56.526Z,5.30
2022-09-06T00:31:27.320Z,13.10
2022-09-06T00:33:55.818Z,6.50
2022-09-06T00:36:24.827Z,8.30
2022-09-06T00:38:53.489Z,7.10
2022-09-06T00:41:22.279Z,6.80
2022-09-06T00:43:51.478Z,7.40
2022-09-06T00:46:25.246Z,6.40
2022-09-06T00:49:01.145Z,8.20
2022-09-06T00:51:31.580Z,7.40
2022-09-06T00:54:04.282Z,10.60
2022-09-06T00:56:35.973Z,8.50
2022-09-06T00:59:04.900Z,11.20
2022-09-06T01:01:33.664Z,19.70
2022-09-06T01:04:03.668Z,13.60
2022-09-06T01:06:48.890Z,14.70
2022-09-06T01:09:29.466Z,14.30
2022-09-06T01:12:15.023Z,16.90
2022-09-06T01:15:02.548Z,14.00
2022-09-06T01:18:04.926Z,9.10
2022-09-06T01:21:10.172Z,15.60
2022-09-06T01:23:41.901Z,13.40
2022-09-06T01:26:41.874Z,8.40
2022-09-06T01:29:38.395Z,12.00
2022-09-06T01:32:23.874Z,10.80
2022-09-06T01:35:28.497Z,8.30
2022-09-06T01:37:58.383Z,11.80
2022-09-06T01:40:28.633Z,10.10
2022-09-06T01:42:58.551Z,11.30
2022-09-06T01:45:44.940Z,7.80
2022-09-06T01:48:41.389Z,8.60
2022-09-06T01:51:37.722Z,7.60
2022-09-06T01:54:25.283Z,15.30
2022-09-06T01:57:20.765Z,9.70
2022-09-06T02:00:12.504Z,10.50
2022-09-06T02:02:56.372Z,13.80
2022-09-06T02:08:02.160Z,15.50
2022-09-06T02:10:43.090Z,12.50
2022-09-06T02:13:14.654Z,10.50
2022-09-06T02:16:01.591Z,14.40
2022-09-06T02:18:48.718Z,13.40
2022-09-06T02:21:22.577Z,14.60
2022-09-06T02:26:26.417Z,12.30
2022-09-06T02:28:56.017Z,11.20
2022-09-06T02:32:00.044Z,15.20
2022-09-06T02:34:29.459Z,12.10
2022-09-06T02:36:58.733Z,15.70
2022-09-06T02:39:27.542Z,9.80
2022-09-06T02:41:56.741Z,10.90
2022-09-06T02:44:25.504Z,9.20
2022-09-06T02:46:57.125Z,10.70
2022-09-06T02:49:26.359Z,9.50
2022-09-06T02:51:55.310Z,13.90
2022-09-06T02:54:24.550Z,14.30
2022-09-06T02:56:53.546Z,14.10
2022-09-06T02:59:22.385Z,15.60
2022-09-06T03:01:51.331Z,15.10
2022-09-06T03:04:20.119Z,11.00
2022-09-06T03:06:48.857Z,11.10
2022-09-06T03:09:17.491Z,16.70
2022-09-06T03:11:46.485Z,9.50
2022-09-06T03:14:17.462Z,9.30
2022-09-06T03:16:46.184Z,9.00
2022-09-06T03:19:15.010Z,9.70
2022-09-06T03:21:43.833Z,14.40
2022-09-06T03:24:12.682Z,15.30
2022-09-06T03:26:41.373Z,10.80
2022-09-06T03:29:11.490Z,11.40
2022-09-06T03:31:40.275Z,9.80
2022-09-06T03:34:11.122Z,10.00
2022-09-06T03:36:40.313Z,10.60
2022-09-06T03:39:09.100Z,12.60
2022-09-06T03:41:38.673Z,13.00
2022-09-06T03:44:07.332Z,12.20
2022-09-06T03:46:35.881Z,10.10
2022-09-06T03:49:04.978Z,8.80
2022-09-06T03:51:33.765Z,11.00
2022-09-06T03:54:02.949Z,9.50
2022-09-06T03:56:31.651Z,8.30
2022-09-06T03:59:00.439Z,11.00
2022-09-06T04:01:29.589Z,8.00
2022-09-06T04:03:58.425Z,15.70
2022-09-06T04:06:27.316Z,10.30
2022-09-06T04:08:56.003Z,8.90
2022-09-06T04:11:24.697Z,7.80
2022-09-06T04:13:53.324Z,10.10
2022-09-06T04:16:22.276Z,10.60
2022-09-06T04:18:51.269Z,11.00
2022-09-06T04:21:19.994Z,12.90
2022-09-06T04:23:48.945Z,10.50
2022-09-06T04:26:17.838Z,10.30
2022-09-06T04:28:46.845Z,10.80
2022-09-06T04:31:15.512Z,11.50
2022-09-06T04:33:44.404Z,15.20
2022-09-06T04:36:13.576Z,24.20
2022-09-06T04:38:45.256Z,11.60
2022-09-06T04:41:16.009Z,11.20
2022-09-06T04:43:45.426Z,16.70
2022-09-06T04:46:27.401Z,16.90
2022-09-06T04:48:57.622Z,17.90
2022-09-06T04:51:26.541Z,14.20
2022-09-06T04:53:55.299Z,17.00
2022-09-06T04:56:25.836Z,11.30
2022-09-06T04:58:56.068Z,23.50
2022-09-06T05:01:26.771Z,11.60
2022-09-06T05:03:57.110Z,16.70
2022-09-06T05:06:26.720Z,13.40
2022-09-06T05:08:55.527Z,13.60
2022-09-06T05:11:24.554Z,13.20
2022-09-06T05:13:53.193Z,12.30
2022-09-06T05:16:21.929Z,6.90
2022-09-06T05:18:50.827Z,11.30
2022-09-06T05:21:19.455Z,16.80
2022-09-06T05:23:48.243Z,25.20
2022-09-06T05:26:16.829Z,12.40
2022-09-06T05:28:45.626Z,16.60
2022-09-06T05:31:28.111Z,15.50
2022-09-06T05:33:58.061Z,10.30
2022-09-06T05:36:28.448Z,13.10
2022-09-06T05:38:58.062Z,11.70
2022-09-06T05:41:27.612Z,10.40
2022-09-06T05:43:56.274Z,16.20
2022-09-06T05:46:24.955Z,11.50
2022-09-06T05:49:00.808Z,13.60
2022-09-06T05:51:29.425Z,13.20
2022-09-06T05:53:58.287Z,26.50
2022-09-06T05:56:26.995Z,12.80
2022-09-06T05:58:56.158Z,11.00
2022-09-06T06:01:29.182Z,12.90
2022-09-06T06:04:03.835Z,9.80
2022-09-06T06:06:34.967Z,9.60
2022-09-06T06:09:04.330Z,26.00
2022-09-06T06:11:37.304Z,16.60
2022-09-06T06:14:06.147Z,16.90
2022-09-06T06:16:35.041Z,22.60
2022-09-06T06:19:03.898Z,16.70
2022-09-06T06:21:33.889Z,21.80
2022-09-06T06:24:04.628Z,12.20
2022-09-06T06:26:35.680Z,10.60
2022-09-06T06:29:08.314Z,12.10
2022-09-06T06:31:38.616Z,32.70
2022-09-06T06:34:08.627Z,17.90
2022-09-06T06:36:37.851Z,14.50
2022-09-06T06:39:08.869Z,28.30
2022-09-06T06:41:38.155Z,22.30
2022-09-06T06:44:14.206Z,13.20
2022-09-06T06:46:43.307Z,11.10
2022-09-06T06:49:12.339Z,20.70
2022-09-06T06:51:41.803Z,13.50
2022-09-06T06:54:10.397Z,17.70
2022-09-06T06:56:45.219Z,14.80
2022-09-06T06:59:14.139Z,25.70
2022-09-06T07:01:43.100Z,17.50
2022-09-06T07:04:12.711Z,16.40
2022-09-06T07:12:29.562Z,28.70
2022-09-06T07:14:58.144Z,22.50
2022-09-06T07:17:26.859Z,15.40
2022-09-06T07:22:44.275Z,17.40
2022-09-06T07:25:17.622Z,12.90
2022-09-06T07:27:50.367Z,15.50
2022-09-06T07:30:20.429Z,13.10
2022-09-06T07:32:49.200Z,13.80
2022-09-06T07:35:17.953Z,15.00
2022-09-06T07:37:54.713Z,22.50
2022-09-06T07:40:25.301Z,21.30
2022-09-06T07:42:58.193Z,22.20
2022-09-06T07:45:27.487Z,20.30
2022-09-06T07:47:59.358Z,17.50
2022-09-06T07:50:48.034Z,17.90
2022-09-06T07:53:27.751Z,21.60
2022-09-06T07:56:01.722Z,26.90
2022-09-06T07:58:31.736Z,22.40
2022-09-06T08:01:17.824Z,24.60
2022-09-06T08:03:47.661Z,26.70
2022-09-06T08:06:16.431Z,22.90
2022-09-06T08:09:00.531Z,24.60
2022-09-06T08:11:32.046Z,16.90
2022-09-06T08:14:02.999Z,28.30
2022-09-06T08:16:34.114Z,36.60
2022-09-06T08:19:05.531Z,32.50
2022-09-06T08:21:35.481Z,28.70
2022-09-06T08:24:07.244Z,34.40
2022-09-06T08:26:39.826Z,34.30
2022-09-06T08:29:09.686Z,41.80
2022-09-06T08:31:41.579Z,35.10
2022-09-06T08:34:13.025Z,25.50
2022-09-06T08:36:42.556Z,26.90
2022-09-06T08:39:11.909Z,50.20
2022-09-06T08:41:55.911Z,39.90
2022-09-06T08:47:27.375Z,41.50
2022-09-06T08:50:01.226Z,36.90
2022-09-06T08:53:06.537Z,43.40
2022-09-06T08:55:50.470Z,15.70
2022-09-06T08:58:40.560Z,10.30
2022-09-06T09:01:19.680Z,10.80
2022-09-06T09:03:48.602Z,20.30
2022-09-06T09:06:17.009Z,21.40
2022-09-06T09:09:04.390Z,19.50
2022-09-06T09:11:36.660Z,20.60
2022-09-06T09:14:36.481Z,20.60
2022-09-06T09:17:29.706Z,26.10
2022-09-06T09:19:58.435Z,15.80
2022-09-06T09:22:28.231Z,10.00
2022-09-06T09:25:00.574Z,13.90
2022-09-06T09:27:29.963Z,12.20
2022-09-06T09:32:50.627Z,10.30
2022-09-06T09:35:31.861Z,14.20
2022-09-06T09:38:12.087Z,10.10
2022-09-06T09:40:53.379Z,5.80
2022-09-06T09:43:34.534Z,17.00
2022-09-06T09:46:11.271Z,11.40
2022-09-06T09:48:44.215Z,5.60
2022-09-06T09:51:27.821Z,15.00
2022-09-06T09:53:59.513Z,7.10
2022-09-06T09:56:35.337Z,8.20
2022-09-06T09:59:15.901Z,10.40
2022-09-06T10:01:45.229Z,16.00
2022-09-06T10:07:18.212Z,8.40
2022-09-06T10:10:11.487Z,19.50
2022-09-06T10:12:43.471Z,11.80
2022-09-06T10:15:32.808Z,15.10
2022-09-06T10:18:01.601Z,8.40
2022-09-06T10:20:44.407Z,19.40
2022-09-06T10:26:17.323Z,8.20
2022-09-06T10:28:46.417Z,12.60
2022-09-06T10:31:30.724Z,9.80
2022-09-06T10:34:40.020Z,10.00
2022-09-06T10:37:11.563Z,37.00
2022-09-06T10:40:09.084Z,10.70
2022-09-06T10:42:54.826Z,9.90
2022-09-06T10:45:36.605Z,7.20
2022-09-06T10:48:30.289Z,11.10
2022-09-06T10:51:07.259Z,8.00
2022-09-06T10:53:48.337Z,19.30
2022-09-06T10:56:22.893Z,13.00
2022-09-06T11:02:21.027Z,14.50
2022-09-06T11:13:20.323Z,12.40
2022-09-06T11:16:30.695Z,10.60
2022-09-06T11:19:05.588Z,11.70
2022-09-06T11:21:34.137Z,7.00
2022-09-06T11:24:13.853Z,8.60
2022-09-06T11:27:03.734Z,8.50
2022-09-06T11:29:33.808Z,7.70
2022-09-06T11:32:20.841Z,10.30
2022-09-06T11:34:56.310Z,6.30
2022-09-06T11:37:35.659Z,11.40
2022-09-06T11:40:27.405Z,11.90
2022-09-06T11:42:59.747Z,10.50
2022-09-06T11:45:53.028Z,9.50
2022-09-06T11:48:24.770Z,12.40
2022-09-06T11:50:59.674Z,15.30
2022-09-06T11:53:30.353Z,11.20
2022-09-06T11:55:58.915Z,9.40
2022-09-06T11:58:33.138Z,6.80
2022-09-06T12:01:14.134Z,10.50
2022-09-06T12:04:05.560Z,7.40
2022-09-06T12:06:44.254Z,12.90
2022-09-06T12:09:52.153Z,9.20
2022-09-06T12:12:59.445Z,12.00
2022-09-06T12:15:31.352Z,8.00
2022-09-06T12:18:01.021Z,9.40
2022-09-06T12:20:48.344Z,10.60
2022-09-06T12:23:35.261Z,5.60
2022-09-06T12:26:06.095Z,7.10
2022-09-06T12:28:47.499Z,7.90
2022-09-06T12:31:30.354Z,10.00
2022-09-06T12:33:59.773Z,16.80
2022-09-06T12:36:31.974Z,12.40
2022-09-06T12:39:14.784Z,9.90
2022-09-06T12:41:50.531Z,9.30
2022-09-06T12:44:39.738Z,7.20
2022-09-06T12:47:26.063Z,11.10
2022-09-06T12:50:18.247Z,8.30
2022-09-06T12:52:59.800Z,8.30
2022-09-06T12:55:38.786Z,9.10
2022-09-06T12:58:10.174Z,12.10
2022-09-06T13:00:41.962Z,8.20
2022-09-06T13:03:22.689Z,10.80
2022-09-06T13:05:53.176Z,15.20
2022-09-06T13:08:40.086Z,11.40
2022-09-06T13:11:13.888Z,8.20
2022-09-06T13:13:49.451Z,9.70
2022-09-06T13:16:27.848Z,12.60
2022-09-06T13:19:12.100Z,10.60
2022-09-06T13:21:43.007Z,11.30
2022-09-06T13:24:23.397Z,15.50
2022-09-06T13:26:53.292Z,21.20
2022-09-06T13:29:30.975Z,11.80
2022-09-06T13:32:02.693Z,11.40
2022-09-06T13:34:34.098Z,12.00
2022-09-06T13:37:06.764Z,12.90
2022-09-06T13:39:41.685Z,10.30
2022-09-06T13:42:24.093Z,9.20
2022-09-06T13:44:53.064Z,14.90
2022-09-06T13:47:21.823Z,13.10
2022-09-06T13:49:52.557Z,12.00
2022-09-06T13:52:22.883Z,10.90
2022-09-06T13:54:51.568Z,14.80
2022-09-06T13:57:24.449Z,9.10
2022-09-06T13:59:53.453Z,11.20
2022-09-06T14:02:22.354Z,8.90
2022-09-06T14:04:51.540Z,7.90
2022-09-06T14:07:20.325Z,15.40
2022-09-06T14:09:50.595Z,14.50
2022-09-06T14:12:19.771Z,11.10
2022-09-06T14:14:48.545Z,10.50
2022-09-06T14:17:17.945Z,12.40
2022-09-06T14:19:46.932Z,13.40
2022-09-06T14:22:15.629Z,10.90
2022-09-06T14:24:44.343Z,8.80
2022-09-06T14:27:13.199Z,11.90
2022-09-06T14:29:42.603Z,13.30
2022-09-06T14:32:11.529Z,12.40
2022-09-06T14:34:40.180Z,12.90
2022-09-06T14:37:13.328Z,9.20
2022-09-06T14:39:42.822Z,8.90
2022-09-06T14:42:12.082Z,9.50
2022-09-06T14:44:40.762Z,5.90
2022-09-06T14:47:09.855Z,10.30
2022-09-06T14:49:38.570Z,10.40
2022-09-06T14:52:07.131Z,10.10
2022-09-06T14:54:35.923Z,6.60
2022-09-06T14:57:05.044Z,9.40
2022-09-06T14:59:33.861Z,8.70
2022-09-06T15:02:02.612Z,7.70
2022-09-06T15:04:31.485Z,17.30
2022-09-06T15:07:01.243Z,11.10
2022-09-06T15:09:30.392Z,9.10
2022-09-06T15:11:59.300Z,9.50
2022-09-06T15:14:31.776Z,8.90
2022-09-06T15:17:01.028Z,9.70
2022-09-06T15:19:30.802Z,6.80
2022-09-06T15:22:00.283Z,10.60
2022-09-06T15:24:29.487Z,14.40
2022-09-06T15:26:59.008Z,17.10
2022-09-06T15:29:27.875Z,11.30
2022-09-06T15:31:57.698Z,10.00
2022-09-06T15:34:27.094Z,12.80
2022-09-06T15:36:57.006Z,18.50
2022-09-06T15:39:25.881Z,17.40
2022-09-06T15:41:55.040Z,23.30
2022-09-06T15:44:23.799Z,14.70
2022-09-06T15:46:58.441Z,12.60
2022-09-06T15:49:29.586Z,13.20
2022-09-06T15:52:01.355Z,12.40
2022-09-06T15:54:49.255Z,11.90
2022-09-06T15:57:18.495Z,16.90
2022-09-06T15:59:47.717Z,15.50
2022-09-06T16:02:16.687Z,10.90
2022-09-06T16:04:46.462Z,14.60
2022-09-06T16:07:15.349Z,14.00
2022-09-06T16:09:44.145Z,15.90
2022-09-06T16:12:12.976Z,17.50
2022-09-06T16:14:41.619Z,17.60
2022-09-06T16:17:12.114Z,26.50
2022-09-06T16:19:40.781Z,17.20
2022-09-06T16:22:09.339Z,13.90
2022-09-06T16:24:37.876Z,19.30
2022-09-06T16:27:06.342Z,12.90
2022-09-06T16:29:34.885Z,15.50
2022-09-06T16:32:03.642Z,11.80
2022-09-06T16:34:32.578Z,14.40
2022-09-06T16:37:04.560Z,20.20
2022-09-06T16:39:33.361Z,15.10
2022-09-06T16:42:02.483Z,13.60
2022-09-06T16:44:31.479Z,16.30
2022-09-06T16:47:04.276Z,11.60
2022-09-06T16:49:32.969Z,10.80
2022-09-06T16:52:01.942Z,14.80
2022-09-06T16:54:30.843Z,11.10
2022-09-06T16:57:01.791Z,13.10
2022-09-06T16:59:30.458Z,12.20
2022-09-06T17:01:59.402Z,12.80
2022-09-06T17:04:28.347Z,12.40
2022-09-06T17:06:57.029Z,10.00
2022-09-06T17:09:25.922Z,14.30
2022-09-06T17:11:54.541Z,18.70
2022-09-06T17:14:24.727Z,15.90
2022-09-06T17:17:05.502Z,15.80
2022-09-06T17:19:41.662Z,16.50
2022-09-06T17:22:12.956Z,22.60
2022-09-06T17:24:42.561Z,16.50
2022-09-06T17:27:11.714Z,22.50
2022-09-06T17:29:40.608Z,12.50
2022-09-06T17:32:10.910Z,25.30
2022-09-06T17:34:41.137Z,19.90
2022-09-06T17:37:13.130Z,21.70
2022-09-06T17:39:42.850Z,21.10
2022-09-06T17:42:14.182Z,19.20
2022-09-06T17:44:43.681Z,19.60
2022-09-06T17:47:13.599Z,29.30
2022-09-06T17:49:43.725Z,23.30
2022-09-06T17:52:13.025Z,20.30
2022-09-06T17:54:42.128Z,22.50
2022-09-06T17:57:11.016Z,38.00
2022-09-06T17:59:39.942Z,19.50
2022-09-06T18:02:09.202Z,37.80
2022-09-06T18:04:38.329Z,26.00
2022-09-06T18:07:06.980Z,21.40
2022-09-06T18:09:37.411Z,27.80
2022-09-06T18:12:07.425Z,24.90
2022-09-06T18:14:36.875Z,21.70
2022-09-06T18:17:05.533Z,19.40
2022-09-06T18:19:34.620Z,24.30
2022-09-06T18:22:04.971Z,29.30
2022-09-06T18:24:33.641Z,18.80
2022-09-06T18:27:03.229Z,18.20
2022-09-06T18:29:32.052Z,20.40
2022-09-06T18:32:01.189Z,24.10
2022-09-06T18:34:30.039Z,20.50
2022-09-06T18:36:59.314Z,13.80
2022-09-06T18:39:28.386Z,22.90
2022-09-06T18:42:00.474Z,19.40
2022-09-06T18:44:32.594Z,16.60
2022-09-06T18:47:04.054Z,17.50
2022-09-06T18:49:34.418Z,22.40
2022-09-06T18:52:05.261Z,20.20
2022-09-06T18:54:35.225Z,14.80
2022-09-06T18:57:04.675Z,14.50
2022-09-06T18:59:33.595Z,16.80
2022-09-06T19:02:02.279Z,16.20
2022-09-06T19:04:31.473Z,19.30
2022-09-06T19:07:03.108Z,15.00
2022-09-06T19:09:31.899Z,10.90
2022-09-06T19:12:00.829Z,14.60
2022-09-06T19:14:30.033Z,25.20
2022-09-06T19:16:58.571Z,14.90
2022-09-06T19:19:27.676Z,12.20
2022-09-06T19:21:56.607Z,10.40
2022-09-06T19:24:26.067Z,11.60
2022-09-06T19:26:55.694Z,14.30
2022-09-06T19:29:24.601Z,12.70
2022-09-06T19:31:54.815Z,11.40
2022-09-06T19:34:23.678Z,22.90
2022-09-06T19:36:55.578Z,14.80
2022-09-06T19:39:33.523Z,9.70
2022-09-06T19:42:06.248Z,9.30
2022-09-06T19:44:35.215Z,12.40
2022-09-06T19:47:03.929Z,11.70
2022-09-06T19:49:32.944Z,11.00
2022-09-06T19:52:09.758Z,8.40
2022-09-06T19:54:39.463Z,12.20
2022-09-06T19:57:08.183Z,14.60
2022-09-06T19:59:38.046Z,8.90
2022-09-06T20:02:07.152Z,13.80
2022-09-06T20:04:35.939Z,10.80
2022-09-06T20:07:04.483Z,9.50
2022-09-06T20:09:33.243Z,10.40
2022-09-06T20:12:02.148Z,8.80
2022-09-06T20:14:30.864Z,13.20
2022-09-06T20:17:16.486Z,9.80
2022-09-06T20:19:49.395Z,12.00
2022-09-06T20:22:18.211Z,14.70
2022-09-06T20:24:47.174Z,10.30
2022-09-06T20:27:16.406Z,8.70
2022-09-06T20:29:45.569Z,10.80
2022-09-06T20:32:15.181Z,12.50
2022-09-06T20:34:44.888Z,16.70
2022-09-06T20:37:13.781Z,11.60
2022-09-06T20:39:42.387Z,11.80
2022-09-06T20:42:11.021Z,14.40
2022-09-06T20:44:39.706Z,9.20
2022-09-06T20:47:08.521Z,9.20
2022-09-06T20:49:37.316Z,11.50
2022-09-06T20:52:05.983Z,12.10
2022-09-06T20:54:34.695Z,18.00
2022-09-06T20:57:03.296Z,9.40
2022-09-06T20:59:32.062Z,8.00
2022-09-06T21:02:01.145Z,18.60
2022-09-06T21:04:30.187Z,14.30
2022-09-06T21:06:58.944Z,13.10
2022-09-06T21:09:27.836Z,12.30
2022-09-06T21:11:57.973Z,10.40
2022-09-06T21:14:26.799Z,13.60
2022-09-06T21:16:55.633Z,13.50
2022-09-06T21:19:25.666Z,13.30
2022-09-06T21:21:54.589Z,11.00
2022-09-06T21:24:23.539Z,17.80
2022-09-06T21:26:52.222Z,33.70
2022-09-06T21:29:21.119Z,17.90
2022-09-06T21:31:51.125Z,24.20
2022-09-06T21:34:19.843Z,17.00
2022-09-06T21:36:48.360Z,15.10
2022-09-06T21:39:17.012Z,12.40
2022-09-06T21:41:46.099Z,14.20
2022-09-06T21:44:14.923Z,19.90
2022-09-06T21:46:43.740Z,18.50
2022-09-06T21:49:13.895Z,11.80
2022-09-06T21:51:43.113Z,12.10
2022-09-06T21:54:12.076Z,12.80
2022-09-06T21:56:41.787Z,12.10
2022-09-06T21:59:11.175Z,14.40
2022-09-06T22:01:44.908Z,26.00
2022-09-06T22:04:14.709Z,11.00
2022-09-06T22:06:44.982Z,13.80
2022-09-06T22:09:14.642Z,18.00
2022-09-06T22:11:44.970Z,21.70
2022-09-06T22:14:14.781Z,11.40
2022-09-06T22:16:43.860Z,11.00
2022-09-06T22:19:13.038Z,16.50
2022-09-06T22:21:41.475Z,14.20
2022-09-06T22:24:12.100Z,15.00
2022-09-06T22:26:42.104Z,15.20
2022-09-06T22:29:13.808Z,14.40
2022-09-06T22:31:43.269Z,13.80
2022-09-06T22:34:12.301Z,19.20
2022-09-06T22:36:41.254Z,11.80
2022-09-06T22:39:09.864Z,13.60
2022-09-06T22:41:38.900Z,14.80
2022-09-06T22:44:07.724Z,13.60
2022-09-06T22:46:37.522Z,12.70
2022-09-06T22:49:06.632Z,13.60
2022-09-06T22:51:35.469Z,12.20
2022-09-06T22:54:05.029Z,12.30
2022-09-06T22:56:34.134Z,15.20
2022-09-06T22:59:03.841Z,13.90
2022-09-06T23:01:38.900Z,20.40
2022-09-06T23:04:09.079Z,12.40
2022-09-06T23:06:37.987Z,15.20
2022-09-06T23:09:06.879Z,12.70
2022-09-06T23:11:35.499Z,21.50
2022-09-06T23:14:05.375Z,11.60
2022-09-06T23:16:34.151Z,11.90
2022-09-06T23:19:03.082Z,14.80
2022-09-06T23:21:32.923Z,13.90
2022-09-06T23:24:01.863Z,13.30
2022-09-06T23:26:32.700Z,14.20
2022-09-06T23:29:02.095Z,21.40
2022-09-06T23:31:32.827Z,24.10
2022-09-06T23:34:03.061Z,17.00
2022-09-06T23:36:32.696Z,12.30
2022-09-06T23:39:02.762Z,12.10
2022-09-06T23:41:31.618Z,11.30
2022-09-06T23:44:00.878Z,14.50
2022-09-06T23:46:30.171Z,20.10
2022-09-06T23:48:59.281Z,13.40
2022-09-06T23:51:28.011Z,13.30
2022-09-06T23:53:56.760Z,14.20
2022-09-06T23:56:25.665Z,10.80
2022-09-06T23:58:54.474Z,12.30
